sensor_id;sensor_type;location;lat;lon;timestamp;pressure;altitude;pressure_sealevel;temperature;humidity
48386;BME280;34644;47.964;7.982;2023-03-26T00:04:06;96202.16;;;17.05;59.69
48386;BME280;34644;47.964;7.982;2023-03-26T00:11:07;96194.16;;;17.05;59.64
48386;BME280;34644;47.964;7.982;2023-03-26T00:18:08;96192.28;;;17.06;59.68
48386;BME280;34644;47.964;7.982;2023-03-26T00:25:10;96189.63;;;17.06;59.78
48386;BME280;34644;47.964;7.982;2023-03-26T00:32:13;96179.75;;;17.06;59.78
48386;BME280;34644;47.964;7.982;2023-03-26T00:39:13;96179.75;;;17.06;60.02
48386;BME280;34644;47.964;7.982;2023-03-26T00:46:16;96173.63;;;17.06;60.10
48386;BME280;34644;47.964;7.982;2023-03-26T00:53:17;96179.75;;;17.06;60.10
48386;BME280;34644;47.964;7.982;2023-03-26T01:00:19;96175.53;;;17.05;60.31
48386;BME280;34644;47.964;7.982;2023-03-26T01:07:27;96164.59;;;17.07;60.21
48386;BME280;34644;47.964;7.982;2023-03-26T01:14:30;96163.00;;;17.06;60.44
48386;BME280;34644;47.964;7.982;2023-03-26T01:21:31;96156.88;;;17.05;60.45
48386;BME280;34644;47.964;7.982;2023-03-26T01:28:33;96138.25;;;17.05;60.73
48386;BME280;34644;47.964;7.982;2023-03-26T01:35:43;96110.84;;;17.05;60.55
48386;BME280;34644;47.964;7.982;2023-03-26T01:42:47;96078.09;;;17.04;60.76
48386;BME280;34644;47.964;7.982;2023-03-26T01:49:50;96056.78;;;17.04;60.67
48386;BME280;34644;47.964;7.982;2023-03-26T02:11:13;96017.66;;;17.05;61.03
48386;BME280;34644;47.964;7.982;2023-03-26T02:18:14;96000.88;;;17.04;60.96
48386;BME280;34644;47.964;7.982;2023-03-26T02:25:16;95981.47;;;17.04;60.94
48386;BME280;34644;47.964;7.982;2023-03-26T02:32:17;95972.41;;;17.05;61.22
48386;BME280;34644;47.964;7.982;2023-03-26T02:39:19;95954.84;;;17.04;61.13
48386;BME280;34644;47.964;7.982;2023-03-26T02:46:28;95944.19;;;17.04;61.19
48386;BME280;34644;47.964;7.982;2023-03-26T02:53:40;95940.75;;;17.03;61.24
48386;BME280;34644;47.964;7.982;2023-03-26T03:01:01;95931.97;;;17.03;61.30
48386;BME280;34644;47.964;7.982;2023-03-26T03:08:09;95910.66;;;17.03;61.32
48386;BME280;34644;47.964;7.982;2023-03-26T03:15:15;95893.91;;;17.02;61.44
48386;BME280;34644;47.964;7.982;2023-03-26T03:22:16;95901.13;;;17.02;61.59
48386;BME280;34644;47.964;7.982;2023-03-26T03:29:20;95885.16;;;17.02;61.47
48386;BME280;34644;47.964;7.982;2023-03-26T03:36:21;95861.97;;;17.02;61.50
48386;BME280;34644;47.964;7.982;2023-03-26T03:43:28;95847.88;;;17.02;61.61
48386;BME280;34644;47.964;7.982;2023-03-26T03:50:37;95834.88;;;17.00;61.68
48386;BME280;34644;47.964;7.982;2023-03-26T03:57:50;95839.38;;;16.99;61.64
48386;BME280;34644;47.964;7.982;2023-03-26T04:04:54;95829.53;;;17.00;61.86
48386;BME280;34644;47.964;7.982;2023-03-26T04:11:57;95811.19;;;16.98;61.78
48386;BME280;34644;47.964;7.982;2023-03-26T04:19:22;95795.22;;;16.98;61.80
48386;BME280;34644;47.964;7.982;2023-03-26T04:26:22;95765.94;;;16.98;61.85
48386;BME280;34644;47.964;7.982;2023-03-26T04:33:39;95768.91;;;16.97;61.87
48386;BME280;34644;47.964;7.982;2023-03-26T04:40:39;95756.66;;;16.96;61.90
48386;BME280;34644;47.964;7.982;2023-03-26T04:48:01;95755.59;;;16.97;61.96
48386;BME280;34644;47.964;7.982;2023-03-26T04:55:02;95736.97;;;16.97;61.97
48386;BME280;34644;47.964;7.982;2023-03-26T05:02:04;95718.63;;;16.95;62.00
48386;BME280;34644;47.964;7.982;2023-03-26T05:09:11;95706.41;;;16.94;62.12
48386;BME280;34644;47.964;7.982;2023-03-26T05:16:41;95697.63;;;16.94;61.97
48386;BME280;34644;47.964;7.982;2023-03-26T05:23:44;95709.06;;;16.94;62.06
48386;BME280;34644;47.964;7.982;2023-03-26T05:30:51;95680.06;;;16.93;61.94
48386;BME280;34644;47.964;7.982;2023-03-26T05:37:53;95669.44;;;16.93;62.07
48386;BME280;34644;47.964;7.982;2023-03-26T05:44:56;95660.66;;;16.92;62.12
48386;BME280;34644;47.964;7.982;2023-03-26T05:52:00;95640.44;;;16.91;62.26
48386;BME280;34644;47.964;7.982;2023-03-26T05:59:30;95611.19;;;16.91;62.19
48386;BME280;34644;47.964;7.982;2023-03-26T06:06:49;95591.78;;;16.91;62.25
48386;BME280;34644;47.964;7.982;2023-03-26T06:13:51;95569.66;;;16.90;62.20
48386;BME280;34644;47.964;7.982;2023-03-26T06:20:52;95552.63;;;16.91;62.32
48386;BME280;34644;47.964;7.982;2023-03-26T06:28:01;95543.47;;;16.70;60.84
48386;BME280;34644;47.964;7.982;2023-03-26T06:35:20;95545.47;;;16.50;59.83
48386;BME280;34644;47.964;7.982;2023-03-26T06:42:21;95545.47;;;16.36;59.09
48386;BME280;34644;47.964;7.982;2023-03-26T06:49:47;95539.47;;;16.31;57.72
48386;BME280;34644;47.964;7.982;2023-03-26T06:57:11;95544.00;;;16.58;58.46
48386;BME280;34644;47.964;7.982;2023-03-26T07:04:14;95537.50;;;16.50;57.35
48386;BME280;34644;47.964;7.982;2023-03-26T07:11:32;95510.88;;;16.64;59.44
48386;BME280;34644;47.964;7.982;2023-03-26T07:18:59;95518.09;;;16.63;59.69
48386;BME280;34644;47.964;7.982;2023-03-26T07:26:11;95498.84;;;16.67;59.85
48386;BME280;34644;47.964;7.982;2023-03-26T07:33:46;95476.78;;;16.66;59.92
48386;BME280;34644;47.964;7.982;2023-03-26T07:41:11;95488.50;;;16.65;59.99
48386;BME280;34644;47.964;7.982;2023-03-26T07:48:41;95502.59;;;16.66;60.11
48386;BME280;34644;47.964;7.982;2023-03-26T07:55:52;95476.00;;;16.66;60.13
48386;BME280;34644;47.964;7.982;2023-03-26T08:10:32;95553.16;;;16.66;60.25
48386;BME280;34644;47.964;7.982;2023-03-26T08:17:41;95570.78;;;16.61;60.40
48386;BME280;34644;47.964;7.982;2023-03-26T08:24:56;95583.78;;;16.77;60.55
48386;BME280;34644;47.964;7.982;2023-03-26T08:32:00;95586.75;;;16.89;59.63
48386;BME280;34644;47.964;7.982;2023-03-26T08:39:03;95571.16;;;16.96;59.61
48386;BME280;34644;47.964;7.982;2023-03-26T09:36:20;95568.28;;;17.29;60.10
48386;BME280;34644;47.964;7.982;2023-03-26T09:57:52;95547.09;;;17.47;59.98
48386;BME280;34644;47.964;7.982;2023-03-26T10:12:17;95540.41;;;17.49;59.84
48386;BME280;34644;47.964;7.982;2023-03-26T10:27:01;95544.84;;;17.63;59.66
48386;BME280;34644;47.964;7.982;2023-03-26T10:34:09;95536.94;;;17.71;59.40
48386;BME280;34644;47.964;7.982;2023-03-26T10:41:15;95531.84;;;17.61;59.68
48386;BME280;34644;47.964;7.982;2023-03-26T10:48:39;95555.41;;;17.68;59.56
48386;BME280;34644;47.964;7.982;2023-03-26T10:55:43;95556.09;;;17.51;60.06
48386;BME280;34644;47.964;7.982;2023-03-26T11:10:06;95530.19;;;17.74;59.10
48386;BME280;34644;47.964;7.982;2023-03-26T11:24:20;95516.31;;;17.86;59.40
48386;BME280;34644;47.964;7.982;2023-03-26T11:38:40;95513.31;;;17.56;60.62
48386;BME280;34644;47.964;7.982;2023-03-26T11:45:48;95532.09;;;17.51;60.67
48386;BME280;34644;47.964;7.982;2023-03-26T11:52:50;95590.09;;;16.81;51.18
48386;BME280;34644;47.964;7.982;2023-03-26T12:14:17;95655.22;;;17.25;57.91
48386;BME280;34644;47.964;7.982;2023-03-26T12:21:18;95605.69;;;17.24;58.32
48386;BME280;34644;47.964;7.982;2023-03-26T12:28:18;95576.59;;;17.28;58.86
48386;BME280;34644;47.964;7.982;2023-03-26T12:35:21;95556.56;;;17.53;59.87
48386;BME280;34644;47.964;7.982;2023-03-26T12:42:29;95537.78;;;17.58;60.53
48386;BME280;34644;47.964;7.982;2023-03-26T12:49:30;95521.75;;;17.49;60.36
48386;BME280;34644;47.964;7.982;2023-03-26T12:56:42;95523.50;;;17.54;60.10
48386;BME280;34644;47.964;7.982;2023-03-26T13:11:18;95501.78;;;17.69;59.73
48386;BME280;34644;47.964;7.982;2023-03-26T13:25:40;95459.06;;;16.98;54.28
48386;BME280;34644;47.964;7.982;2023-03-26T13:32:50;95442.91;;;17.40;57.19
48386;BME280;34644;47.964;7.982;2023-03-26T13:47:17;95418.50;;;17.46;58.24
48386;BME280;34644;47.964;7.982;2023-03-26T13:54:27;95381.94;;;17.38;58.46
48386;BME280;34644;47.964;7.982;2023-03-26T14:01:30;95383.66;;;17.34;58.78
48386;BME280;34644;47.964;7.982;2023-03-26T14:08:46;95538.69;;;17.31;59.05
48386;BME280;34644;47.964;7.982;2023-03-26T14:16:01;95591.00;;;17.27;59.24
48386;BME280;34644;47.964;7.982;2023-03-26T14:23:16;95577.69;;;17.27;59.16
48386;BME280;34644;47.964;7.982;2023-03-26T15:13:37;95530.38;;;17.24;59.61
48386;BME280;34644;47.964;7.982;2023-03-26T15:20:48;95533.03;;;17.24;59.44
48386;BME280;34644;47.964;7.982;2023-03-26T15:42:15;95498.34;;;17.15;59.77
48386;BME280;34644;47.964;7.982;2023-03-26T15:49:29;95511.16;;;17.13;60.00
48386;BME280;34644;47.964;7.982;2023-03-26T15:56:37;95517.88;;;17.10;60.09
48386;BME280;34644;47.964;7.982;2023-03-26T16:11:02;95533.19;;;17.05;60.23
48386;BME280;34644;47.964;7.982;2023-03-26T16:32:24;95564.16;;;17.00;60.15
48386;BME280;34644;47.964;7.982;2023-03-26T16:39:40;95556.47;;;16.99;60.33
48386;BME280;34644;47.964;7.982;2023-03-26T16:53:56;95535.00;;;16.95;60.14
48386;BME280;34644;47.964;7.982;2023-03-26T17:01:06;95532.63;;;16.94;60.26
48386;BME280;34644;47.964;7.982;2023-03-26T17:15:25;95565.63;;;16.93;60.31
48386;BME280;34644;47.964;7.982;2023-03-26T17:22:44;95595.22;;;16.91;60.25
48386;BME280;34644;47.964;7.982;2023-03-26T17:37:40;95581.44;;;16.89;60.32
48386;BME280;34644;47.964;7.982;2023-03-26T17:44:45;95585.16;;;16.88;60.28
48386;BME280;34644;47.964;7.982;2023-03-26T17:51:55;95588.91;;;16.87;60.25
48386;BME280;34644;47.964;7.982;2023-03-26T17:58:58;95587.81;;;16.88;60.35
48386;BME280;34644;47.964;7.982;2023-03-26T18:06:05;95579.63;;;16.85;60.43
48386;BME280;34644;47.964;7.982;2023-03-26T18:20:18;95579.34;;;16.86;60.47
48386;BME280;34644;47.964;7.982;2023-03-26T18:27:19;95569.19;;;16.88;60.61
48386;BME280;34644;47.964;7.982;2023-03-26T18:34:20;95569.19;;;16.88;60.70
48386;BME280;34644;47.964;7.982;2023-03-26T18:41:24;95563.88;;;16.88;60.71
48386;BME280;34644;47.964;7.982;2023-03-26T18:48:26;95563.56;;;16.90;61.00
48386;BME280;34644;47.964;7.982;2023-03-26T18:55:28;95557.78;;;16.88;61.00
48386;BME280;34644;47.964;7.982;2023-03-26T19:02:29;95550.56;;;16.88;61.07
48386;BME280;34644;47.964;7.982;2023-03-26T19:09:30;95539.44;;;16.86;61.13
48386;BME280;34644;47.964;7.982;2023-03-26T19:16:31;95540.22;;;16.87;61.15
48386;BME280;34644;47.964;7.982;2023-03-26T19:23:35;95532.50;;;16.85;61.08
48386;BME280;34644;47.964;7.982;2023-03-26T19:30:38;95530.94;;;16.84;61.09
48386;BME280;34644;47.964;7.982;2023-03-26T19:37:47;95547.22;;;16.82;61.02
48386;BME280;34644;47.964;7.982;2023-03-26T19:44:48;95553.63;;;16.81;61.14
48386;BME280;34644;47.964;7.982;2023-03-26T19:51:50;95570.66;;;16.80;61.05
48386;BME280;34644;47.964;7.982;2023-03-26T19:58:52;95557.66;;;16.79;61.06
48386;BME280;34644;47.964;7.982;2023-03-26T20:05:53;95541.19;;;16.77;60.98
48386;BME280;34644;47.964;7.982;2023-03-26T20:12:53;95535.09;;;16.76;60.99
48386;BME280;34644;47.964;7.982;2023-03-26T20:19:55;95556.69;;;16.75;60.90
48386;BME280;34644;47.964;7.982;2023-03-26T20:26:55;95565.75;;;16.74;60.90
48386;BME280;34644;47.964;7.982;2023-03-26T20:33:55;95581.41;;;16.75;61.03
48386;BME280;34644;47.964;7.982;2023-03-26T20:40:56;95598.75;;;16.73;61.12
48386;BME280;34644;47.964;7.982;2023-03-26T20:47:57;95600.63;;;16.72;61.13
48386;BME280;34644;47.964;7.982;2023-03-26T20:54:58;95589.69;;;16.74;61.06
48386;BME280;34644;47.964;7.982;2023-03-26T21:01:59;95598.75;;;16.73;61.12
48386;BME280;34644;47.964;7.982;2023-03-26T21:08:59;95589.97;;;16.72;61.29
48386;BME280;34644;47.964;7.982;2023-03-26T21:16:00;95577.75;;;16.71;61.28
48386;BME280;34644;47.964;7.982;2023-03-26T21:30:10;95576.97;;;16.71;61.30
48386;BME280;34644;47.964;7.982;2023-03-26T21:37:12;95578.84;;;16.70;61.27
48386;BME280;34644;47.964;7.982;2023-03-26T21:44:14;95574.63;;;16.69;61.41
48386;BME280;34644;47.964;7.982;2023-03-26T21:51:15;95575.69;;;16.68;61.41
48386;BME280;34644;47.964;7.982;2023-03-26T22:05:19;95582.88;;;16.68;61.45
48386;BME280;34644;47.964;7.982;2023-03-26T22:12:22;95586.63;;;16.67;61.48
48386;BME280;34644;47.964;7.982;2023-03-26T22:19:24;95599.94;;;16.67;61.57
48386;BME280;34644;47.964;7.982;2023-03-26T22:26:24;95604.19;;;16.68;61.54
48386;BME280;34644;47.964;7.982;2023-03-26T22:33:25;95623.88;;;16.67;61.70
48386;BME280;34644;47.964;7.982;2023-03-26T22:40:25;95621.22;;;16.67;61.77
48386;BME280;34644;47.964;7.982;2023-03-26T22:47:26;95619.94;;;16.64;61.71
48386;BME280;34644;47.964;7.982;2023-03-26T22:54:26;95631.06;;;16.66;61.76
48386;BME280;34644;47.964;7.982;2023-03-26T23:01:26;95630.28;;;16.66;61.96
48386;BME280;34644;47.964;7.982;2023-03-26T23:08:27;95648.91;;;16.66;61.96
48386;BME280;34644;47.964;7.982;2023-03-26T23:15:27;95650.00;;;16.64;62.13
48386;BME280;34644;47.964;7.982;2023-03-26T23:22:29;95655.31;;;16.64;62.12
48386;BME280;34644;47.964;7.982;2023-03-26T23:29:30;95677.38;;;16.65;62.20
48386;BME280;34644;47.964;7.982;2023-03-26T23:36:30;95675.81;;;16.64;62.35
48386;BME280;34644;47.964;7.982;2023-03-26T23:43:31;95689.88;;;16.64;62.42
48386;BME280;34644;47.964;7.982;2023-03-26T23:50:31;95703.19;;;16.64;62.40
48386;BME280;34644;47.964;7.982;2023-03-26T23:57:32;95718.38;;;16.64;62.42
